createdAt,value
2019-02-21T00:02:18.577Z,100078.95
2019-02-21T00:04:47.244Z,100078.50
2019-02-21T00:07:15.878Z,100067.22
2019-02-21T00:09:44.486Z,100068.80
2019-02-21T00:12:13.069Z,100078.38
2019-02-21T00:14:41.700Z,100079.80
2019-02-21T00:17:10.388Z,100080.70
2019-02-21T00:19:39.139Z,100078.09
2019-02-21T00:22:07.823Z,100068.89
2019-02-21T00:24:36.600Z,100068.75
2019-02-21T00:27:05.236Z,100069.11
2019-02-21T00:29:33.830Z,100066.88
2019-02-21T00:32:02.419Z,100065.69
2019-02-21T00:34:31.027Z,100070.51
2019-02-21T00:36:59.721Z,100057.56
2019-02-21T00:39:28.309Z,100065.47
2019-02-21T00:41:56.948Z,100064.70
2019-02-21T00:44:25.679Z,100060.01
2019-02-21T00:46:54.303Z,100063.14
2019-02-21T00:49:22.852Z,100056.95
2019-02-21T00:51:51.464Z,100061.68
2019-02-21T00:54:19.950Z,100058.99
2019-02-21T00:56:48.590Z,100059.84
2019-02-21T00:59:17.134Z,100059.67
2019-02-21T01:01:45.724Z,100069.29
2019-02-21T01:04:14.336Z,100066.08
2019-02-21T01:06:43.003Z,100067.13
2019-02-21T01:09:11.639Z,100072.83
2019-02-21T01:11:40.251Z,100063.83
2019-02-21T01:14:08.814Z,100067.03
2019-02-21T01:16:37.381Z,100059.25
2019-02-21T01:19:06.058Z,100064.57
2019-02-21T01:21:34.693Z,100059.77
2019-02-21T01:24:05.040Z,100067.69
2019-02-21T01:26:36.587Z,100070.45
2019-02-21T01:29:05.259Z,100070.14
2019-02-21T01:31:33.860Z,100070.73
2019-02-21T01:34:02.339Z,100076.08
2019-02-21T01:36:30.840Z,100080.97
2019-02-21T01:38:59.361Z,100084.16
2019-02-21T01:41:28.002Z,100088.88
2019-02-21T01:43:56.489Z,100093.58
2019-02-21T01:46:25.213Z,100088.81
2019-02-21T01:48:53.758Z,100092.74
2019-02-21T01:51:22.329Z,100101.45
2019-02-21T01:53:50.892Z,100093.39
2019-02-21T01:56:19.576Z,100099.99
2019-02-21T01:58:48.073Z,100099.61
2019-02-21T02:01:16.746Z,100097.49
2019-02-21T02:03:45.383Z,100107.94
2019-02-21T02:06:14.055Z,100106.67
2019-02-21T02:08:42.694Z,100104.98
2019-02-21T02:11:11.331Z,100113.61
2019-02-21T02:13:39.957Z,100116.67
2019-02-21T02:16:08.645Z,100104.52
2019-02-21T02:18:37.259Z,100105.36
2019-02-21T02:21:06.838Z,100112.68
2019-02-21T02:23:35.445Z,100107.89
2019-02-21T02:26:04.075Z,100118.27
2019-02-21T02:28:32.631Z,100119.58
2019-02-21T02:31:01.200Z,100117.00
2019-02-21T02:33:29.708Z,100119.60
2019-02-21T02:35:58.210Z,100122.64
2019-02-21T02:38:26.769Z,100122.62
2019-02-21T02:40:55.328Z,100121.78
2019-02-21T02:43:23.939Z,100119.63
2019-02-21T02:45:52.484Z,100120.92
2019-02-21T02:48:21.000Z,100129.16
2019-02-21T02:50:49.600Z,100138.71
2019-02-21T02:53:18.275Z,100137.41
2019-02-21T02:55:46.862Z,100134.83
2019-02-21T02:58:15.470Z,100127.07
2019-02-21T03:00:44.294Z,100128.42
2019-02-21T03:03:12.934Z,100133.63
2019-02-21T03:05:41.600Z,100135.45
2019-02-21T03:08:10.309Z,100141.46
2019-02-21T03:10:38.853Z,100138.44
2019-02-21T03:13:07.533Z,100145.39
2019-02-21T03:15:36.160Z,100154.91
2019-02-21T03:18:04.827Z,100157.44
2019-02-21T03:20:33.475Z,100166.53
2019-02-21T03:23:02.047Z,100168.64
2019-02-21T03:25:30.688Z,100175.08
2019-02-21T03:27:59.662Z,100169.45
2019-02-21T03:30:28.199Z,100177.70
2019-02-21T03:32:56.694Z,100177.69
2019-02-21T03:35:25.232Z,100186.78
2019-02-21T03:37:53.717Z,100183.77
2019-02-21T03:40:22.321Z,100184.23
2019-02-21T03:42:50.817Z,100184.25
2019-02-21T03:45:19.481Z,100186.84
2019-02-21T03:47:48.066Z,100193.80
2019-02-21T03:50:16.704Z,100202.84
2019-02-21T03:52:45.276Z,100193.75
2019-02-21T03:55:13.930Z,100193.33
2019-02-21T03:57:42.567Z,100205.45
2019-02-21T04:00:12.204Z,100202.00
2019-02-21T04:02:40.869Z,100199.86
2019-02-21T04:05:09.519Z,100199.02
2019-02-21T04:07:38.294Z,100195.59
2019-02-21T04:10:08.872Z,100193.86
2019-02-21T04:12:37.521Z,100199.47
2019-02-21T04:15:09.238Z,100198.17
2019-02-21T04:17:37.807Z,100203.37
2019-02-21T04:20:07.465Z,100205.97
2019-02-21T04:22:35.943Z,100211.16
2019-02-21T04:25:05.669Z,100213.77
2019-02-21T04:27:34.304Z,100208.56
2019-02-21T04:30:02.980Z,100214.19
2019-02-21T04:32:31.539Z,100223.28
2019-02-21T04:35:00.258Z,100225.88
2019-02-21T04:37:29.065Z,100225.45
2019-02-21T04:39:57.563Z,100231.50
2019-02-21T04:42:26.172Z,100226.75
2019-02-21T04:44:54.735Z,100230.20
2019-02-21T04:47:23.382Z,100233.20
2019-02-21T04:49:52.012Z,100230.17
2019-02-21T04:52:20.558Z,100228.42
2019-02-21T04:54:49.119Z,100226.23
2019-02-21T04:57:17.674Z,100230.13
2019-02-21T04:59:46.172Z,100231.39
2019-02-21T05:02:14.675Z,100227.95
2019-02-21T05:04:43.235Z,100228.38
2019-02-21T05:07:11.843Z,100229.25
2019-02-21T05:09:40.386Z,100238.77
2019-02-21T05:12:08.920Z,100247.80
2019-02-21T05:14:37.484Z,100245.23
2019-02-21T05:17:06.028Z,100253.81
2019-02-21T05:19:34.706Z,100257.71
2019-02-21T05:22:03.250Z,100265.05
2019-02-21T05:24:31.933Z,100271.50
2019-02-21T05:27:08.118Z,100284.44
2019-02-21T05:29:36.657Z,100272.36
2019-02-21T05:32:26.145Z,100278.41
2019-02-21T05:35:05.522Z,100287.07
2019-02-21T05:37:35.669Z,100284.50
2019-02-21T05:40:06.074Z,100286.31
2019-02-21T05:42:39.114Z,100289.41
2019-02-21T05:45:12.456Z,100299.84
2019-02-21T05:47:45.252Z,100297.24
2019-02-21T05:50:15.602Z,100296.77
2019-02-21T05:52:45.996Z,100303.72
2019-02-21T05:55:32.945Z,100307.59
2019-02-21T05:58:06.465Z,100311.05
2019-02-21T06:00:39.597Z,100318.39
2019-02-21T06:03:09.916Z,100330.90
2019-02-21T06:05:55.253Z,100343.37
2019-02-21T06:08:28.064Z,100335.84
2019-02-21T06:11:01.251Z,100341.25
2019-02-21T06:13:37.657Z,100340.16
2019-02-21T06:16:13.769Z,100343.00
2019-02-21T06:18:53.045Z,100343.64
2019-02-21T06:21:39.613Z,100346.42
2019-02-21T06:24:28.423Z,100352.20
2019-02-21T06:27:00.856Z,100352.30
2019-02-21T06:29:34.200Z,100357.17
2019-02-21T06:32:13.597Z,100355.11
2019-02-21T06:34:33.718Z,100366.89
2019-02-21T06:37:03.046Z,100367.87
2019-02-21T06:39:33.777Z,100367.70
2019-02-21T06:42:02.464Z,100367.97
2019-02-21T06:44:31.198Z,100371.19
2019-02-21T06:46:59.831Z,100375.26
2019-02-21T06:49:32.878Z,100367.30
2019-02-21T06:52:02.871Z,100376.70
2019-02-21T06:54:31.651Z,100376.06
2019-02-21T06:57:00.351Z,100380.84
2019-02-21T06:59:29.298Z,100377.49
2019-02-21T07:01:59.855Z,100384.23
2019-02-21T07:04:33.299Z,100377.67
2019-02-21T07:07:01.405Z,100392.93
2019-02-21T07:09:29.934Z,100394.05
2019-02-21T07:11:58.506Z,100397.17
2019-02-21T07:14:27.294Z,100404.58
2019-02-21T07:16:56.041Z,100399.73
2019-02-21T07:19:24.645Z,100401.11
2019-02-21T07:21:53.153Z,100397.52
2019-02-21T07:24:22.084Z,100408.89
2019-02-21T07:26:50.935Z,100409.22
2019-02-21T07:29:19.738Z,100404.25
2019-02-21T07:31:49.359Z,100394.97
2019-02-21T07:34:18.258Z,100401.08
2019-02-21T07:36:46.823Z,100408.11
2019-02-21T07:39:18.527Z,100400.01
2019-02-21T07:41:45.952Z,100399.28
2019-02-21T07:44:14.693Z,100401.48
2019-02-21T07:46:43.391Z,100408.94
2019-02-21T07:49:12.071Z,100402.23
2019-02-21T07:51:41.579Z,100397.44
2019-02-21T07:54:10.436Z,100391.15
2019-02-21T07:56:42.236Z,100397.45
2019-02-21T07:59:12.048Z,100401.27
2019-02-21T08:01:40.210Z,100398.64
2019-02-21T08:04:08.980Z,100389.00
2019-02-21T08:06:37.658Z,100390.05
2019-02-21T08:09:08.586Z,100393.25
2019-02-21T08:11:37.262Z,100397.36
2019-02-21T08:14:08.908Z,100394.92
2019-02-21T08:16:37.620Z,100395.23
2019-02-21T08:19:06.147Z,100387.60
2019-02-21T08:21:34.924Z,100387.48
2019-02-21T08:24:03.667Z,100386.42
2019-02-21T08:26:32.439Z,100395.65
2019-02-21T08:29:01.190Z,100396.16
2019-02-21T08:31:30.168Z,100402.47
2019-02-21T08:34:04.168Z,100394.47
2019-02-21T08:36:32.337Z,100393.44
2019-02-21T08:39:00.963Z,100404.33
2019-02-21T08:41:30.427Z,100386.09
2019-02-21T08:43:59.252Z,100387.55
2019-02-21T08:46:30.098Z,100387.55
2019-02-21T08:49:00.426Z,100380.93
2019-02-21T08:51:30.915Z,100380.93
2019-02-21T08:53:59.855Z,100385.22
2019-02-21T08:56:34.347Z,100370.88
2019-02-21T08:59:06.887Z,100378.06
2019-02-21T09:01:36.032Z,100369.56
2019-02-21T09:04:14.824Z,100374.38
2019-02-21T09:06:39.830Z,100372.81
2019-02-21T09:09:08.673Z,100368.17
2019-02-21T09:11:37.910Z,100371.09
2019-02-21T09:14:08.842Z,100371.27
2019-02-21T09:16:38.784Z,100375.89
2019-02-21T09:19:08.996Z,100373.77
2019-02-21T09:21:42.210Z,100373.23
2019-02-21T09:24:26.848Z,100376.50
2019-02-21T09:26:47.713Z,100373.49
2019-02-21T09:29:18.307Z,100370.96
2019-02-21T09:31:49.408Z,100355.66
2019-02-21T09:34:21.451Z,100366.02
2019-02-21T09:36:52.468Z,100376.82
2019-02-21T09:39:24.378Z,100379.73
2019-02-21T09:41:53.802Z,100378.78
2019-02-21T09:44:27.435Z,100373.31
2019-02-21T09:46:58.121Z,100368.51
2019-02-21T09:49:27.176Z,100373.56
2019-02-21T09:51:56.144Z,100356.92
2019-02-21T09:54:29.754Z,100353.80
2019-02-21T09:56:58.497Z,100350.87
2019-02-21T09:59:28.802Z,100343.05
2019-02-21T10:01:57.893Z,100349.96
2019-02-21T10:04:32.135Z,100342.78
2019-02-21T10:06:56.807Z,100349.80
2019-02-21T10:09:25.406Z,100339.63
2019-02-21T10:11:53.898Z,100342.75
2019-02-21T10:14:22.448Z,100327.09
2019-02-21T10:16:51.181Z,100331.01
2019-02-21T10:19:19.812Z,100329.09
2019-02-21T10:21:48.421Z,100329.22
2019-02-21T10:24:17.191Z,100320.34
2019-02-21T10:26:45.812Z,100312.22
2019-02-21T10:29:14.346Z,100306.38
2019-02-21T10:31:45.964Z,100307.92
2019-02-21T10:34:14.713Z,100312.03
2019-02-21T10:36:43.316Z,100311.26
2019-02-21T10:39:12.538Z,100304.31
2019-02-21T10:41:46.087Z,100313.38
2019-02-21T10:44:17.448Z,100302.30
2019-02-21T10:46:46.354Z,100293.23
2019-02-21T10:49:17.760Z,100288.38
2019-02-21T10:51:46.575Z,100284.66
2019-02-21T10:54:15.542Z,100289.62
2019-02-21T10:56:44.350Z,100273.69
2019-02-21T10:59:18.746Z,100280.84
2019-02-21T11:01:47.635Z,100285.92
2019-02-21T11:04:16.393Z,100284.27
2019-02-21T11:06:45.082Z,100286.71
2019-02-21T11:09:16.792Z,100276.93
2019-02-21T11:11:45.451Z,100274.17
2019-02-21T11:14:14.216Z,100261.59
2019-02-21T11:16:43.009Z,100245.88
2019-02-21T11:19:11.708Z,100251.75
2019-02-21T11:21:41.382Z,100255.11
2019-02-21T11:24:10.843Z,100248.81
2019-02-21T11:26:45.656Z,100258.34
2019-02-21T11:29:22.228Z,100244.60
2019-02-21T11:31:51.086Z,100246.08
2019-02-21T11:34:19.810Z,100240.97
2019-02-21T11:36:48.543Z,100226.94
2019-02-21T11:39:17.344Z,100232.19
2019-02-21T11:41:46.176Z,100230.37
2019-02-21T11:44:17.496Z,100229.36
2019-02-21T11:46:52.495Z,100225.18
2019-02-21T11:49:33.262Z,100219.14
2019-02-21T11:52:10.561Z,100214.57
2019-02-21T11:54:39.607Z,100216.87
2019-02-21T11:57:16.529Z,100210.43
2019-02-21T11:59:47.169Z,100202.77
2019-02-21T12:02:16.071Z,100202.80
2019-02-21T12:04:53.173Z,100193.13
2019-02-21T12:07:23.563Z,100197.56
2019-02-21T12:09:52.331Z,100190.67
2019-02-21T12:12:21.030Z,100193.50
2019-02-21T12:14:51.304Z,100187.08
2019-02-21T12:17:21.450Z,100179.14
2019-02-21T12:20:00.623Z,100172.48
2019-02-21T12:22:29.357Z,100168.97
2019-02-21T12:25:00.393Z,100163.04
2019-02-21T12:27:31.496Z,100162.36
2019-02-21T12:30:00.524Z,100159.49
2019-02-21T12:32:30.878Z,100159.50
2019-02-21T12:35:02.522Z,100163.16
2019-02-21T12:37:31.398Z,100152.06
2019-02-21T12:40:03.418Z,100146.27
2019-02-21T12:42:32.189Z,100154.34
2019-02-21T12:45:01.023Z,100158.31
2019-02-21T12:47:32.733Z,100153.47
2019-02-21T12:50:01.453Z,100150.58
2019-02-21T12:52:30.314Z,100146.15
2019-02-21T12:55:01.523Z,100142.98
2019-02-21T12:57:34.738Z,100135.16
2019-02-21T13:00:03.794Z,100137.47
2019-02-21T13:02:32.582Z,100143.30
2019-02-21T13:05:01.150Z,100139.02
2019-02-21T13:07:29.783Z,100139.91
2019-02-21T13:09:58.452Z,100134.93
2019-02-21T13:12:27.124Z,100134.13
2019-02-21T13:14:55.732Z,100132.88
2019-02-21T13:17:24.353Z,100134.77
2019-02-21T13:19:53.302Z,100133.08
2019-02-21T13:22:22.070Z,100129.98
2019-02-21T13:24:51.043Z,100135.22
2019-02-21T13:27:19.819Z,100124.48
2019-02-21T13:29:48.652Z,100120.33
2019-02-21T13:32:17.459Z,100127.09
2019-02-21T13:34:49.174Z,100133.92
2019-02-21T13:37:28.180Z,100124.97
2019-02-21T13:39:48.693Z,100126.97
2019-02-21T13:42:17.830Z,100125.61
2019-02-21T13:44:46.624Z,100119.91
2019-02-21T13:47:18.599Z,100122.98
2019-02-21T13:49:47.459Z,100122.83
2019-02-21T13:52:16.313Z,100124.05
2019-02-21T13:54:45.158Z,100119.66
2019-02-21T13:57:14.497Z,100118.50
2019-02-21T13:59:43.190Z,100114.25
2019-02-21T14:02:11.879Z,100117.09
2019-02-21T14:04:40.535Z,100121.47
2019-02-21T14:07:14.220Z,100124.02
2019-02-21T14:09:44.846Z,100120.59
2019-02-21T14:12:13.603Z,100120.95
2019-02-21T14:14:45.232Z,100116.31
2019-02-21T14:17:19.679Z,100115.94
2019-02-21T14:19:52.873Z,100111.98
2019-02-21T14:22:20.798Z,100107.46
2019-02-21T14:24:49.631Z,100106.78
2019-02-21T14:27:18.312Z,100105.81
2019-02-21T14:29:46.995Z,100108.27
2019-02-21T14:32:16.092Z,100103.84
2019-02-21T14:34:44.640Z,100105.28
2019-02-21T14:37:13.324Z,100102.61
2019-02-21T14:39:41.972Z,100109.44
2019-02-21T14:42:11.084Z,100106.02
2019-02-21T14:44:39.669Z,100105.18
2019-02-21T14:47:08.392Z,100103.47
2019-02-21T14:49:36.998Z,100103.98
2019-02-21T14:52:07.249Z,100101.67
2019-02-21T14:54:38.070Z,100108.29
2019-02-21T14:57:06.346Z,100109.06
2019-02-21T14:59:34.904Z,100111.06
2019-02-21T15:02:06.073Z,100108.87
2019-02-21T15:04:33.809Z,100105.08
2019-02-21T15:07:02.533Z,100108.25
2019-02-21T15:09:31.183Z,100106.64
2019-02-21T15:11:59.742Z,100111.49
2019-02-21T15:14:28.345Z,100112.20
2019-02-21T15:16:56.916Z,100114.06
2019-02-21T15:19:25.497Z,100111.06
2019-02-21T15:21:54.136Z,100114.30
2019-02-21T15:24:22.706Z,100110.94
2019-02-21T15:26:51.321Z,100115.97
2019-02-21T15:29:20.393Z,100115.97
2019-02-21T15:31:49.088Z,100123.14
2019-02-21T15:34:17.641Z,100113.84
2019-02-21T15:36:46.716Z,100120.31
2019-02-21T15:39:15.351Z,100128.43
2019-02-21T15:41:46.691Z,100126.40
2019-02-21T15:44:15.228Z,100131.95
2019-02-21T15:46:43.750Z,100126.64
2019-02-21T15:49:12.499Z,100133.59
2019-02-21T15:51:41.083Z,100135.79
2019-02-21T15:54:12.322Z,100134.95
2019-02-21T15:56:40.036Z,100142.13
2019-02-21T15:59:08.738Z,100147.62
2019-02-21T16:01:47.013Z,100148.08
2019-02-21T16:04:07.664Z,100152.81
2019-02-21T16:06:38.079Z,100151.82
2019-02-21T16:09:15.835Z,100149.72
2019-02-21T16:11:38.331Z,100158.47
2019-02-21T16:14:06.986Z,100161.93
2019-02-21T16:16:35.589Z,100161.00
2019-02-21T16:19:04.210Z,100164.28
2019-02-21T16:21:35.669Z,100163.99
2019-02-21T16:24:04.239Z,100167.75
2019-02-21T16:26:32.907Z,100165.62
2019-02-21T16:29:01.635Z,100172.30
2019-02-21T16:31:32.948Z,100175.14
2019-02-21T16:34:01.618Z,100178.28
2019-02-21T16:36:30.294Z,100173.60
2019-02-21T16:39:04.324Z,100185.48
2019-02-21T16:41:36.268Z,100192.05
2019-02-21T16:44:07.013Z,100189.07
2019-02-21T16:46:38.050Z,100193.15
2019-02-21T16:49:06.687Z,100195.44
2019-02-21T16:51:35.325Z,100202.14
2019-02-21T16:54:06.612Z,100201.40
2019-02-21T16:56:35.302Z,100204.94
2019-02-21T16:59:03.888Z,100209.47
2019-02-21T17:01:33.025Z,100206.58
2019-02-21T17:04:01.574Z,100213.09
2019-02-21T17:06:30.139Z,100211.73
2019-02-21T17:08:58.677Z,100216.08
2019-02-21T17:11:30.133Z,100217.04
2019-02-21T17:13:58.756Z,100219.26
2019-02-21T17:16:30.116Z,100221.95
2019-02-21T17:18:58.715Z,100223.41
2019-02-21T17:21:27.276Z,100224.41
2019-02-21T17:23:55.941Z,100225.39
2019-02-21T17:26:24.585Z,100233.70
2019-02-21T17:28:53.152Z,100225.08
2019-02-21T17:31:21.819Z,100229.80
2019-02-21T17:33:50.383Z,100222.48
2019-02-21T17:36:18.998Z,100221.64
2019-02-21T17:38:47.615Z,100229.89
2019-02-21T17:41:16.299Z,100222.94
2019-02-21T17:43:44.904Z,100229.49
2019-02-21T17:46:13.581Z,100231.70
2019-02-21T17:48:42.248Z,100233.87
2019-02-21T17:51:13.854Z,100226.06
2019-02-21T17:53:42.614Z,100223.91
2019-02-21T17:56:11.258Z,100231.31
2019-02-21T17:58:39.878Z,100227.92
2019-02-21T18:01:08.759Z,100226.59
2019-02-21T18:03:37.398Z,100230.13
2019-02-21T18:06:05.996Z,100225.31
2019-02-21T18:08:37.313Z,100227.45
2019-02-21T18:11:08.913Z,100222.73
2019-02-21T18:13:37.545Z,100219.34
2019-02-21T18:16:08.932Z,100215.48
2019-02-21T18:18:40.348Z,100217.22
2019-02-21T18:21:09.091Z,100225.45
2019-02-21T18:23:37.720Z,100222.87
2019-02-21T18:26:09.297Z,100232.42
2019-02-21T18:28:40.763Z,100225.12
2019-02-21T18:31:09.476Z,100232.89
2019-02-21T18:33:38.904Z,100229.88
2019-02-21T18:36:07.536Z,100229.50
2019-02-21T18:38:36.229Z,100229.56
2019-02-21T18:41:04.884Z,100233.45
2019-02-21T18:43:33.589Z,100230.47
2019-02-21T18:46:02.350Z,100233.48
2019-02-21T18:48:31.211Z,100231.78
2019-02-21T18:50:59.860Z,100236.10
2019-02-21T18:53:35.184Z,100232.68
2019-02-21T18:56:03.987Z,100235.69
2019-02-21T18:58:32.735Z,100237.02
2019-02-21T19:01:01.463Z,100240.95
2019-02-21T19:03:30.141Z,100242.70
2019-02-21T19:05:58.864Z,100246.59
2019-02-21T19:08:28.478Z,100252.67
2019-02-21T19:10:57.100Z,100253.96
2019-02-21T19:13:25.685Z,100255.67
2019-02-21T19:15:54.319Z,100257.78
2019-02-21T19:18:24.307Z,100252.58
2019-02-21T19:20:53.747Z,100263.78
2019-02-21T19:23:22.469Z,100264.22
2019-02-21T19:25:51.286Z,100256.01
2019-02-21T19:28:22.742Z,100268.50
2019-02-21T19:30:59.952Z,100265.03
2019-02-21T19:33:31.547Z,100262.00
2019-02-21T19:36:00.243Z,100274.03
2019-02-21T19:38:28.897Z,100267.66
2019-02-21T19:40:57.560Z,100264.63
2019-02-21T19:43:26.196Z,100262.03
2019-02-21T19:45:55.412Z,100269.84
2019-02-21T19:48:24.450Z,100268.98
2019-02-21T19:50:53.055Z,100272.89
2019-02-21T19:53:21.698Z,100273.39
2019-02-21T19:55:50.357Z,100276.00
2019-02-21T19:58:19.006Z,100269.53
2019-02-21T20:00:48.696Z,100273.87
2019-02-21T20:03:17.326Z,100272.56
2019-02-21T20:05:47.441Z,100266.08
2019-02-21T20:08:21.525Z,100266.94
2019-02-21T20:10:49.259Z,100263.06
2019-02-21T20:13:17.842Z,100259.16
2019-02-21T20:15:46.454Z,100259.17
2019-02-21T20:18:15.183Z,100257.00
2019-02-21T20:20:43.791Z,100253.56
2019-02-21T20:23:15.212Z,100256.12
2019-02-21T20:25:43.900Z,100253.53
2019-02-21T20:28:12.535Z,100245.75
2019-02-21T20:30:41.955Z,100251.38
2019-02-21T20:33:11.128Z,100248.37
2019-02-21T20:35:39.626Z,100242.73
2019-02-21T20:38:08.235Z,100247.06
2019-02-21T20:40:36.797Z,100243.16
2019-02-21T20:43:05.506Z,100241.01
2019-02-21T20:45:52.899Z,100234.51
2019-02-21T20:48:17.342Z,100233.21
2019-02-21T20:50:56.374Z,100229.76
2019-02-21T20:53:19.333Z,100229.76
2019-02-21T20:55:51.407Z,100225.00
2019-02-21T20:58:20.024Z,100230.64
2019-02-21T21:00:48.722Z,100228.47
2019-02-21T21:03:17.468Z,100232.36
2019-02-21T21:05:46.097Z,100215.91
2019-02-21T21:08:14.773Z,100222.40
2019-02-21T21:10:43.411Z,100221.12
2019-02-21T21:13:11.930Z,100219.39
2019-02-21T21:15:40.542Z,100211.61
2019-02-21T21:18:09.879Z,100213.76
2019-02-21T21:20:38.636Z,100220.20
2019-02-21T21:23:07.196Z,100211.09
2019-02-21T21:25:36.398Z,100210.20
2019-02-21T21:28:05.024Z,100213.65
2019-02-21T21:30:33.637Z,100209.71
2019-02-21T21:33:02.254Z,100206.69
2019-02-21T21:35:31.032Z,100202.79
2019-02-21T21:38:02.139Z,100201.48
2019-02-21T21:40:30.809Z,100205.36
2019-02-21T21:43:01.905Z,100209.69
2019-02-21T21:45:30.911Z,100210.55
2019-02-21T21:47:59.459Z,100206.23
2019-02-21T21:50:28.146Z,100208.38
2019-02-21T21:52:57.338Z,100204.50
2019-02-21T21:55:25.970Z,100199.31
2019-02-21T21:57:54.655Z,100205.78
2019-02-21T22:00:24.124Z,100200.16
2019-02-21T22:02:53.197Z,100197.12
2019-02-21T22:05:21.916Z,100197.13
2019-02-21T22:07:50.584Z,100196.70
2019-02-21T22:10:19.225Z,100196.23
2019-02-21T22:12:48.066Z,100202.66
2019-02-21T22:15:19.046Z,100194.84
2019-02-21T22:17:47.684Z,100202.97
2019-02-21T22:20:16.376Z,100191.70
2019-02-21T22:22:44.989Z,100196.87
2019-02-21T22:25:14.496Z,100192.08
2019-02-21T22:27:43.117Z,100198.89
2019-02-21T22:30:14.493Z,100201.39
2019-02-21T22:32:43.307Z,100192.67
2019-02-21T22:35:11.936Z,100196.95
2019-02-21T22:37:40.626Z,100197.44
2019-02-21T22:40:15.264Z,100190.99
2019-02-21T22:42:43.909Z,100200.14
2019-02-21T22:45:12.527Z,100193.23
2019-02-21T22:47:41.222Z,100200.20
2019-02-21T22:50:19.792Z,100203.30
2019-02-21T22:52:48.476Z,100203.83
2019-02-21T22:58:57.936Z,100193.50
2019-02-21T23:01:28.855Z,100198.23
2019-02-21T23:04:09.641Z,100200.61
2019-02-21T23:06:57.250Z,100205.09
2019-02-21T23:09:30.681Z,100194.44
2019-02-21T23:15:04.484Z,100201.27
2019-02-21T23:17:33.048Z,100187.78
2019-02-21T23:20:01.730Z,100190.27
2019-02-21T23:22:30.370Z,100185.06
2019-02-21T23:24:59.006Z,100179.09
2019-02-21T23:27:27.641Z,100181.62
2019-02-21T23:29:56.359Z,100180.80
2019-02-21T23:32:25.038Z,100177.80
2019-02-21T23:34:54.798Z,100175.64
2019-02-21T23:37:23.475Z,100181.72
2019-02-21T23:39:52.026Z,100179.56
2019-02-21T23:42:20.841Z,100173.50
2019-02-21T23:44:49.479Z,100170.53
2019-02-21T23:47:18.126Z,100175.86
2019-02-21T23:49:46.849Z,100167.42
2019-02-21T23:52:15.337Z,100170.78
2019-02-21T23:54:43.959Z,100168.23
2019-02-21T23:57:13.456Z,100167.42
2019-02-21T23:59:42.098Z,100165.27
